sensor_id;sensor_type;location;lat;lon;timestamp;temperature;humidity
16128;DHT22;8168;49.036;7.690;2022-07-17T00:00:30;15.70;84.90
16128;DHT22;8168;49.036;7.690;2022-07-17T00:03:01;15.80;85.30
16128;DHT22;8168;49.036;7.690;2022-07-17T00:05:32;15.80;85.40
16128;DHT22;8168;49.036;7.690;2022-07-17T00:08:03;15.70;85.50
16128;DHT22;8168;49.036;7.690;2022-07-17T00:10:40;15.50;85.80
16128;DHT22;8168;49.036;7.690;2022-07-17T00:13:11;15.30;86.40
16128;DHT22;8168;49.036;7.690;2022-07-17T00:15:42;15.20;87.70
16128;DHT22;8168;49.036;7.690;2022-07-17T00:18:12;14.90;88.30
16128;DHT22;8168;49.036;7.690;2022-07-17T00:20:43;14.80;88.60
16128;DHT22;8168;49.036;7.690;2022-07-17T00:23:14;14.80;89.00
16128;DHT22;8168;49.036;7.690;2022-07-17T00:25:45;14.70;89.50
16128;DHT22;8168;49.036;7.690;2022-07-17T00:28:16;14.80;89.70
16128;DHT22;8168;49.036;7.690;2022-07-17T00:30:47;14.70;89.50
16128;DHT22;8168;49.036;7.690;2022-07-17T00:33:18;14.70;90.00
16128;DHT22;8168;49.036;7.690;2022-07-17T00:35:48;14.70;90.20
16128;DHT22;8168;49.036;7.690;2022-07-17T00:38:19;14.70;90.30
16128;DHT22;8168;49.036;7.690;2022-07-17T00:40:53;14.70;90.30
16128;DHT22;8168;49.036;7.690;2022-07-17T00:43:25;14.60;90.50
16128;DHT22;8168;49.036;7.690;2022-07-17T00:46:01;14.70;90.70
16128;DHT22;8168;49.036;7.690;2022-07-17T00:48:32;14.50;90.70
16128;DHT22;8168;49.036;7.690;2022-07-17T00:51:03;14.50;91.00
16128;DHT22;8168;49.036;7.690;2022-07-17T00:53:35;14.60;91.10
16128;DHT22;8168;49.036;7.690;2022-07-17T00:56:06;14.50;91.10
16128;DHT22;8168;49.036;7.690;2022-07-17T00:58:37;14.40;91.20
16128;DHT22;8168;49.036;7.690;2022-07-17T01:01:09;14.50;91.40
16128;DHT22;8168;49.036;7.690;2022-07-17T01:03:39;14.40;91.60
16128;DHT22;8168;49.036;7.690;2022-07-17T01:06:10;14.50;91.70
16128;DHT22;8168;49.036;7.690;2022-07-17T01:08:41;14.50;91.60
16128;DHT22;8168;49.036;7.690;2022-07-17T01:11:11;14.50;91.70
16128;DHT22;8168;49.036;7.690;2022-07-17T01:13:42;14.50;91.70
16128;DHT22;8168;49.036;7.690;2022-07-17T01:16:13;14.50;91.70
16128;DHT22;8168;49.036;7.690;2022-07-17T01:18:44;14.50;91.70
16128;DHT22;8168;49.036;7.690;2022-07-17T01:21:14;14.60;91.80
16128;DHT22;8168;49.036;7.690;2022-07-17T01:23:45;14.50;91.70
16128;DHT22;8168;49.036;7.690;2022-07-17T01:26:15;14.60;91.80
16128;DHT22;8168;49.036;7.690;2022-07-17T01:28:46;14.50;91.60
16128;DHT22;8168;49.036;7.690;2022-07-17T01:31:17;14.50;91.70
16128;DHT22;8168;49.036;7.690;2022-07-17T01:33:48;14.40;91.60
16128;DHT22;8168;49.036;7.690;2022-07-17T01:36:23;14.40;91.60
16128;DHT22;8168;49.036;7.690;2022-07-17T01:38:54;14.40;91.70
16128;DHT22;8168;49.036;7.690;2022-07-17T01:41:27;14.40;91.60
16128;DHT22;8168;49.036;7.690;2022-07-17T01:43:57;14.30;91.60
16128;DHT22;8168;49.036;7.690;2022-07-17T01:46:29;14.30;91.50
16128;DHT22;8168;49.036;7.690;2022-07-17T01:49:00;14.30;91.60
16128;DHT22;8168;49.036;7.690;2022-07-17T01:51:33;14.20;91.60
16128;DHT22;8168;49.036;7.690;2022-07-17T01:54:04;14.20;91.80
16128;DHT22;8168;49.036;7.690;2022-07-17T01:56:34;14.20;91.80
16128;DHT22;8168;49.036;7.690;2022-07-17T01:59:05;14.20;91.80
16128;DHT22;8168;49.036;7.690;2022-07-17T02:01:36;14.10;91.90
16128;DHT22;8168;49.036;7.690;2022-07-17T02:04:06;14.10;91.90
16128;DHT22;8168;49.036;7.690;2022-07-17T02:06:37;14.10;91.90
16128;DHT22;8168;49.036;7.690;2022-07-17T02:09:07;13.90;91.90
16128;DHT22;8168;49.036;7.690;2022-07-17T02:11:38;13.90;92.00
16128;DHT22;8168;49.036;7.690;2022-07-17T02:14:09;13.90;92.00
16128;DHT22;8168;49.036;7.690;2022-07-17T02:16:39;13.80;92.10
16128;DHT22;8168;49.036;7.690;2022-07-17T02:19:10;13.80;92.30
16128;DHT22;8168;49.036;7.690;2022-07-17T02:21:41;13.70;92.10
16128;DHT22;8168;49.036;7.690;2022-07-17T02:24:12;13.70;92.10
16128;DHT22;8168;49.036;7.690;2022-07-17T02:26:43;13.70;92.30
16128;DHT22;8168;49.036;7.690;2022-07-17T02:29:14;13.60;92.40
16128;DHT22;8168;49.036;7.690;2022-07-17T02:31:44;13.60;92.40
16128;DHT22;8168;49.036;7.690;2022-07-17T02:34:15;13.60;92.50
16128;DHT22;8168;49.036;7.690;2022-07-17T02:36:46;13.60;92.40
16128;DHT22;8168;49.036;7.690;2022-07-17T02:39:17;13.50;92.50
16128;DHT22;8168;49.036;7.690;2022-07-17T02:41:47;13.50;92.60
16128;DHT22;8168;49.036;7.690;2022-07-17T02:44:18;13.50;92.70
16128;DHT22;8168;49.036;7.690;2022-07-17T02:46:48;13.50;92.80
16128;DHT22;8168;49.036;7.690;2022-07-17T02:49:19;13.50;92.80
16128;DHT22;8168;49.036;7.690;2022-07-17T02:51:50;13.50;92.70
16128;DHT22;8168;49.036;7.690;2022-07-17T02:54:20;13.40;92.70
16128;DHT22;8168;49.036;7.690;2022-07-17T02:56:51;13.40;92.80
16128;DHT22;8168;49.036;7.690;2022-07-17T02:59:21;13.40;92.90
16128;DHT22;8168;49.036;7.690;2022-07-17T03:01:52;13.40;92.80
16128;DHT22;8168;49.036;7.690;2022-07-17T03:04:23;13.30;92.80
16128;DHT22;8168;49.036;7.690;2022-07-17T03:06:53;13.20;92.70
16128;DHT22;8168;49.036;7.690;2022-07-17T03:09:24;13.20;92.70
16128;DHT22;8168;49.036;7.690;2022-07-17T03:11:54;13.20;92.80
16128;DHT22;8168;49.036;7.690;2022-07-17T03:14:25;13.10;93.00
16128;DHT22;8168;49.036;7.690;2022-07-17T03:16:56;13.10;93.00
16128;DHT22;8168;49.036;7.690;2022-07-17T03:19:27;13.10;92.80
16128;DHT22;8168;49.036;7.690;2022-07-17T03:21:57;13.00;92.70
16128;DHT22;8168;49.036;7.690;2022-07-17T03:24:28;13.00;93.00
16128;DHT22;8168;49.036;7.690;2022-07-17T03:26:59;12.90;93.10
16128;DHT22;8168;49.036;7.690;2022-07-17T03:29:29;12.90;93.20
16128;DHT22;8168;49.036;7.690;2022-07-17T03:32:00;12.80;92.90
16128;DHT22;8168;49.036;7.690;2022-07-17T03:34:31;12.80;92.80
16128;DHT22;8168;49.036;7.690;2022-07-17T03:37:01;12.70;92.90
16128;DHT22;8168;49.036;7.690;2022-07-17T03:39:32;12.70;93.20
16128;DHT22;8168;49.036;7.690;2022-07-17T03:42:03;12.70;93.20
16128;DHT22;8168;49.036;7.690;2022-07-17T03:44:33;12.70;93.20
16128;DHT22;8168;49.036;7.690;2022-07-17T03:47:04;12.70;93.40
16128;DHT22;8168;49.036;7.690;2022-07-17T03:49:34;12.60;93.40
16128;DHT22;8168;49.036;7.690;2022-07-17T03:52:05;12.60;93.50
16128;DHT22;8168;49.036;7.690;2022-07-17T03:54:36;12.60;93.50
16128;DHT22;8168;49.036;7.690;2022-07-17T03:57:06;12.60;93.50
16128;DHT22;8168;49.036;7.690;2022-07-17T03:59:37;12.50;93.50
16128;DHT22;8168;49.036;7.690;2022-07-17T04:02:08;12.50;93.60
16128;DHT22;8168;49.036;7.690;2022-07-17T04:04:38;12.50;93.70
16128;DHT22;8168;49.036;7.690;2022-07-17T04:07:09;12.50;93.80
16128;DHT22;8168;49.036;7.690;2022-07-17T04:09:58;12.40;93.80
16128;DHT22;8168;49.036;7.690;2022-07-17T04:12:29;12.40;93.80
16128;DHT22;8168;49.036;7.690;2022-07-17T04:15:00;12.40;93.90
16128;DHT22;8168;49.036;7.690;2022-07-17T04:17:31;12.40;94.00
16128;DHT22;8168;49.036;7.690;2022-07-17T04:20:02;12.40;94.20
16128;DHT22;8168;49.036;7.690;2022-07-17T04:22:33;12.40;94.20
16128;DHT22;8168;49.036;7.690;2022-07-17T04:25:04;12.40;94.30
16128;DHT22;8168;49.036;7.690;2022-07-17T04:27:35;12.40;94.40
16128;DHT22;8168;49.036;7.690;2022-07-17T04:30:06;12.40;94.30
16128;DHT22;8168;49.036;7.690;2022-07-17T04:32:36;12.30;94.10
16128;DHT22;8168;49.036;7.690;2022-07-17T04:35:07;12.30;94.30
16128;DHT22;8168;49.036;7.690;2022-07-17T04:37:38;12.30;94.50
16128;DHT22;8168;49.036;7.690;2022-07-17T04:40:10;12.40;94.70
16128;DHT22;8168;49.036;7.690;2022-07-17T04:42:41;12.40;94.70
16128;DHT22;8168;49.036;7.690;2022-07-17T04:45:12;12.30;94.70
16128;DHT22;8168;49.036;7.690;2022-07-17T04:47:46;12.30;94.80
16128;DHT22;8168;49.036;7.690;2022-07-17T04:50:16;12.30;95.00
16128;DHT22;8168;49.036;7.690;2022-07-17T04:52:47;12.40;95.20
16128;DHT22;8168;49.036;7.690;2022-07-17T04:55:18;12.40;95.40
16128;DHT22;8168;49.036;7.690;2022-07-17T04:57:48;12.50;95.50
16128;DHT22;8168;49.036;7.690;2022-07-17T05:00:19;12.50;95.50
16128;DHT22;8168;49.036;7.690;2022-07-17T05:02:50;12.60;95.60
16128;DHT22;8168;49.036;7.690;2022-07-17T05:05:21;12.60;95.60
16128;DHT22;8168;49.036;7.690;2022-07-17T05:07:52;12.70;95.60
16128;DHT22;8168;49.036;7.690;2022-07-17T05:10:23;12.70;95.60
16128;DHT22;8168;49.036;7.690;2022-07-17T05:12:54;12.80;95.70
16128;DHT22;8168;49.036;7.690;2022-07-17T05:15:25;12.90;95.90
16128;DHT22;8168;49.036;7.690;2022-07-17T05:17:55;12.90;96.00
16128;DHT22;8168;49.036;7.690;2022-07-17T05:20:26;13.00;96.10
16128;DHT22;8168;49.036;7.690;2022-07-17T05:22:57;13.10;96.20
16128;DHT22;8168;49.036;7.690;2022-07-17T05:25:27;13.20;96.60
16128;DHT22;8168;49.036;7.690;2022-07-17T05:27:58;13.30;96.40
16128;DHT22;8168;49.036;7.690;2022-07-17T05:30:29;13.40;96.40
16128;DHT22;8168;49.036;7.690;2022-07-17T05:33:00;13.50;96.30
16128;DHT22;8168;49.036;7.690;2022-07-17T05:35:30;13.60;96.30
16128;DHT22;8168;49.036;7.690;2022-07-17T05:38:02;13.70;96.30
16128;DHT22;8168;49.036;7.690;2022-07-17T05:40:32;13.80;96.40
16128;DHT22;8168;49.036;7.690;2022-07-17T05:43:03;13.90;96.20
16128;DHT22;8168;49.036;7.690;2022-07-17T05:45:33;14.00;96.20
16128;DHT22;8168;49.036;7.690;2022-07-17T05:48:07;14.20;96.30
16128;DHT22;8168;49.036;7.690;2022-07-17T05:50:38;14.30;96.20
16128;DHT22;8168;49.036;7.690;2022-07-17T05:53:09;14.40;96.20
16128;DHT22;8168;49.036;7.690;2022-07-17T05:55:40;14.60;96.30
16128;DHT22;8168;49.036;7.690;2022-07-17T05:58:10;14.70;96.20
16128;DHT22;8168;49.036;7.690;2022-07-17T06:00:41;14.80;96.10
16128;DHT22;8168;49.036;7.690;2022-07-17T06:03:12;15.00;96.10
16128;DHT22;8168;49.036;7.690;2022-07-17T06:05:43;15.10;96.10
16128;DHT22;8168;49.036;7.690;2022-07-17T06:08:13;15.20;96.20
16128;DHT22;8168;49.036;7.690;2022-07-17T06:10:44;15.40;96.20
16128;DHT22;8168;49.036;7.690;2022-07-17T06:13:15;15.50;96.20
16128;DHT22;8168;49.036;7.690;2022-07-17T06:15:45;15.70;96.30
16128;DHT22;8168;49.036;7.690;2022-07-17T06:18:16;15.80;96.30
16128;DHT22;8168;49.036;7.690;2022-07-17T06:20:46;16.00;96.20
16128;DHT22;8168;49.036;7.690;2022-07-17T06:23:17;16.10;96.00
16128;DHT22;8168;49.036;7.690;2022-07-17T06:25:48;16.30;96.00
16128;DHT22;8168;49.036;7.690;2022-07-17T06:28:18;16.50;95.70
16128;DHT22;8168;49.036;7.690;2022-07-17T06:30:49;16.60;95.10
16128;DHT22;8168;49.036;7.690;2022-07-17T06:33:19;16.80;94.90
16128;DHT22;8168;49.036;7.690;2022-07-17T06:35:50;17.00;94.60
16128;DHT22;8168;49.036;7.690;2022-07-17T06:38:21;17.30;94.20
16128;DHT22;8168;49.036;7.690;2022-07-17T06:40:52;17.40;93.70
16128;DHT22;8168;49.036;7.690;2022-07-17T06:43:22;17.60;92.90
16128;DHT22;8168;49.036;7.690;2022-07-17T06:45:53;17.70;92.70
16128;DHT22;8168;49.036;7.690;2022-07-17T06:48:24;17.90;90.60
16128;DHT22;8168;49.036;7.690;2022-07-17T06:50:55;18.10;90.70
16128;DHT22;8168;49.036;7.690;2022-07-17T06:53:25;18.20;90.20
16128;DHT22;8168;49.036;7.690;2022-07-17T06:55:56;18.40;89.20
16128;DHT22;8168;49.036;7.690;2022-07-17T06:58:27;18.50;87.70
16128;DHT22;8168;49.036;7.690;2022-07-17T07:00:57;18.60;87.60
16128;DHT22;8168;49.036;7.690;2022-07-17T07:03:28;18.70;85.20
16128;DHT22;8168;49.036;7.690;2022-07-17T07:05:58;18.90;85.70
16128;DHT22;8168;49.036;7.690;2022-07-17T07:08:30;19.00;86.50
16128;DHT22;8168;49.036;7.690;2022-07-17T07:11:01;19.10;85.90
16128;DHT22;8168;49.036;7.690;2022-07-17T07:13:31;19.20;85.10
16128;DHT22;8168;49.036;7.690;2022-07-17T07:16:02;19.30;83.60
16128;DHT22;8168;49.036;7.690;2022-07-17T07:18:33;19.50;83.00
16128;DHT22;8168;49.036;7.690;2022-07-17T07:21:04;19.60;82.20
16128;DHT22;8168;49.036;7.690;2022-07-17T07:23:35;19.70;81.70
16128;DHT22;8168;49.036;7.690;2022-07-17T07:26:06;19.80;78.00
16128;DHT22;8168;49.036;7.690;2022-07-17T07:28:37;20.00;78.90
16128;DHT22;8168;49.036;7.690;2022-07-17T07:31:08;20.00;79.80
16128;DHT22;8168;49.036;7.690;2022-07-17T07:33:40;20.20;77.30
16128;DHT22;8168;49.036;7.690;2022-07-17T07:36:11;20.30;77.40
16128;DHT22;8168;49.036;7.690;2022-07-17T07:38:42;20.40;77.00
16128;DHT22;8168;49.036;7.690;2022-07-17T07:41:13;20.50;76.70
16128;DHT22;8168;49.036;7.690;2022-07-17T07:43:43;20.50;76.80
16128;DHT22;8168;49.036;7.690;2022-07-17T07:46:15;20.60;77.70
16128;DHT22;8168;49.036;7.690;2022-07-17T07:48:45;20.80;74.90
16128;DHT22;8168;49.036;7.690;2022-07-17T07:51:16;21.00;74.60
16128;DHT22;8168;49.036;7.690;2022-07-17T07:53:47;21.10;74.30
16128;DHT22;8168;49.036;7.690;2022-07-17T07:56:17;21.20;74.20
16128;DHT22;8168;49.036;7.690;2022-07-17T07:58:48;21.30;74.00
16128;DHT22;8168;49.036;7.690;2022-07-17T08:01:19;21.40;73.50
16128;DHT22;8168;49.036;7.690;2022-07-17T08:03:49;21.40;72.00
16128;DHT22;8168;49.036;7.690;2022-07-17T08:06:20;21.60;72.10
16128;DHT22;8168;49.036;7.690;2022-07-17T08:08:51;21.80;70.20
16128;DHT22;8168;49.036;7.690;2022-07-17T08:11:22;21.90;69.70
16128;DHT22;8168;49.036;7.690;2022-07-17T08:13:52;22.10;69.80
16128;DHT22;8168;49.036;7.690;2022-07-17T08:16:23;22.20;69.50
16128;DHT22;8168;49.036;7.690;2022-07-17T08:18:53;22.30;69.00
16128;DHT22;8168;49.036;7.690;2022-07-17T08:21:24;22.40;69.00
16128;DHT22;8168;49.036;7.690;2022-07-17T08:23:55;22.40;69.00
16128;DHT22;8168;49.036;7.690;2022-07-17T08:26:25;22.50;67.90
16128;DHT22;8168;49.036;7.690;2022-07-17T08:28:56;22.70;67.40
16128;DHT22;8168;49.036;7.690;2022-07-17T08:31:26;22.70;68.10
16128;DHT22;8168;49.036;7.690;2022-07-17T08:33:57;22.60;68.10
16128;DHT22;8168;49.036;7.690;2022-07-17T08:36:28;22.80;66.80
16128;DHT22;8168;49.036;7.690;2022-07-17T08:38:58;23.00;66.40
16128;DHT22;8168;49.036;7.690;2022-07-17T08:41:29;23.10;66.30
16128;DHT22;8168;49.036;7.690;2022-07-17T08:44:00;23.20;66.10
16128;DHT22;8168;49.036;7.690;2022-07-17T08:46:32;23.30;65.90
16128;DHT22;8168;49.036;7.690;2022-07-17T08:49:05;23.40;64.10
16128;DHT22;8168;49.036;7.690;2022-07-17T08:51:36;23.50;65.00
16128;DHT22;8168;49.036;7.690;2022-07-17T08:54:07;23.60;64.80
16128;DHT22;8168;49.036;7.690;2022-07-17T08:56:37;23.70;63.40
16128;DHT22;8168;49.036;7.690;2022-07-17T08:59:09;23.80;62.00
16128;DHT22;8168;49.036;7.690;2022-07-17T09:01:40;23.80;62.00
16128;DHT22;8168;49.036;7.690;2022-07-17T09:04:11;23.80;62.10
16128;DHT22;8168;49.036;7.690;2022-07-17T09:06:41;23.80;63.90
16128;DHT22;8168;49.036;7.690;2022-07-17T09:09:13;23.90;63.20
16128;DHT22;8168;49.036;7.690;2022-07-17T09:11:47;24.00;60.70
16128;DHT22;8168;49.036;7.690;2022-07-17T09:14:19;24.10;61.00
16128;DHT22;8168;49.036;7.690;2022-07-17T09:16:58;24.10;60.60
16128;DHT22;8168;49.036;7.690;2022-07-17T09:19:41;24.20;60.00
16128;DHT22;8168;49.036;7.690;2022-07-17T09:22:17;24.30;60.30
16128;DHT22;8168;49.036;7.690;2022-07-17T09:24:56;24.40;60.40
16128;DHT22;8168;49.036;7.690;2022-07-17T09:27:28;24.40;60.90
16128;DHT22;8168;49.036;7.690;2022-07-17T09:30:03;24.50;59.80
16128;DHT22;8168;49.036;7.690;2022-07-17T09:32:36;24.60;59.60
16128;DHT22;8168;49.036;7.690;2022-07-17T09:35:10;24.70;58.90
16128;DHT22;8168;49.036;7.690;2022-07-17T09:37:40;24.70;58.90
16128;DHT22;8168;49.036;7.690;2022-07-17T09:40:12;24.80;58.60
16128;DHT22;8168;49.036;7.690;2022-07-17T09:43:07;25.00;58.70
16128;DHT22;8168;49.036;7.690;2022-07-17T09:45:38;24.80;58.70
16128;DHT22;8168;49.036;7.690;2022-07-17T09:48:10;24.90;61.60
16128;DHT22;8168;49.036;7.690;2022-07-17T09:50:42;25.00;61.30
16128;DHT22;8168;49.036;7.690;2022-07-17T09:53:13;25.00;59.10
16128;DHT22;8168;49.036;7.690;2022-07-17T09:55:44;25.00;59.10
16128;DHT22;8168;49.036;7.690;2022-07-17T09:58:19;25.10;58.80
16128;DHT22;8168;49.036;7.690;2022-07-17T10:00:51;25.20;58.80
16128;DHT22;8168;49.036;7.690;2022-07-17T10:03:22;25.30;58.30
16128;DHT22;8168;49.036;7.690;2022-07-17T10:05:53;25.40;56.70
16128;DHT22;8168;49.036;7.690;2022-07-17T10:08:24;25.40;56.70
16128;DHT22;8168;49.036;7.690;2022-07-17T10:10:55;25.50;56.80
16128;DHT22;8168;49.036;7.690;2022-07-17T10:13:26;25.50;56.50
16128;DHT22;8168;49.036;7.690;2022-07-17T10:15:58;25.60;57.60
16128;DHT22;8168;49.036;7.690;2022-07-17T10:18:37;25.70;55.00
16128;DHT22;8168;49.036;7.690;2022-07-17T10:21:14;25.70;55.60
16128;DHT22;8168;49.036;7.690;2022-07-17T10:24:06;25.90;55.60
16128;DHT22;8168;49.036;7.690;2022-07-17T10:29:29;26.10;55.20
16128;DHT22;8168;49.036;7.690;2022-07-17T10:32:08;26.10;55.20
16128;DHT22;8168;49.036;7.690;2022-07-17T10:34:45;26.20;55.20
16128;DHT22;8168;49.036;7.690;2022-07-17T10:37:40;26.40;56.00
16128;DHT22;8168;49.036;7.690;2022-07-17T10:40:25;26.60;55.00
16128;DHT22;8168;49.036;7.690;2022-07-17T10:43:03;26.70;52.70
16128;DHT22;8168;49.036;7.690;2022-07-17T10:48:14;26.90;50.20
16128;DHT22;8168;49.036;7.690;2022-07-17T10:50:54;26.90;49.40
16128;DHT22;8168;49.036;7.690;2022-07-17T10:58:42;27.10;50.30
16128;DHT22;8168;49.036;7.690;2022-07-17T11:01:14;27.20;49.60
16128;DHT22;8168;49.036;7.690;2022-07-17T11:03:56;27.10;50.40
16128;DHT22;8168;49.036;7.690;2022-07-17T11:06:31;27.20;50.90
16128;DHT22;8168;49.036;7.690;2022-07-17T11:09:10;27.30;51.90
16128;DHT22;8168;49.036;7.690;2022-07-17T11:11:44;27.50;49.50
16128;DHT22;8168;49.036;7.690;2022-07-17T11:16:53;27.50;47.50
16128;DHT22;8168;49.036;7.690;2022-07-17T11:19:29;27.40;46.80
16128;DHT22;8168;49.036;7.690;2022-07-17T11:22:07;27.30;47.30
16128;DHT22;8168;49.036;7.690;2022-07-17T11:24:44;27.30;48.70
16128;DHT22;8168;49.036;7.690;2022-07-17T11:27:25;27.40;48.20
16128;DHT22;8168;49.036;7.690;2022-07-17T11:29:58;27.40;48.20
16128;DHT22;8168;49.036;7.690;2022-07-17T11:32:37;27.50;47.40
16128;DHT22;8168;49.036;7.690;2022-07-17T11:35:19;27.50;46.70
16128;DHT22;8168;49.036;7.690;2022-07-17T11:37:50;27.10;47.20
16128;DHT22;8168;49.036;7.690;2022-07-17T11:40:21;27.60;49.50
16128;DHT22;8168;49.036;7.690;2022-07-17T11:43:01;27.60;48.10
16128;DHT22;8168;49.036;7.690;2022-07-17T11:45:35;27.70;50.90
16128;DHT22;8168;49.036;7.690;2022-07-17T11:48:06;27.80;48.90
16128;DHT22;8168;49.036;7.690;2022-07-17T11:50:36;27.80;48.60
16128;DHT22;8168;49.036;7.690;2022-07-17T11:53:08;27.80;46.40
16128;DHT22;8168;49.036;7.690;2022-07-17T11:55:40;27.90;47.00
16128;DHT22;8168;49.036;7.690;2022-07-17T11:58:11;27.90;44.10
16128;DHT22;8168;49.036;7.690;2022-07-17T12:00:42;28.00;43.60
16128;DHT22;8168;49.036;7.690;2022-07-17T12:03:13;28.00;44.20
16128;DHT22;8168;49.036;7.690;2022-07-17T12:05:44;28.00;44.00
16128;DHT22;8168;49.036;7.690;2022-07-17T12:08:19;27.90;43.20
16128;DHT22;8168;49.036;7.690;2022-07-17T12:11:03;27.90;42.50
16128;DHT22;8168;49.036;7.690;2022-07-17T12:13:38;27.90;44.10
16128;DHT22;8168;49.036;7.690;2022-07-17T12:16:30;28.00;44.00
16128;DHT22;8168;49.036;7.690;2022-07-17T12:19:08;28.10;43.30
16128;DHT22;8168;49.036;7.690;2022-07-17T12:24:32;28.20;46.10
16128;DHT22;8168;49.036;7.690;2022-07-17T12:27:05;28.20;44.90
16128;DHT22;8168;49.036;7.690;2022-07-17T12:29:36;28.30;43.80
16128;DHT22;8168;49.036;7.690;2022-07-17T12:32:10;28.30;41.00
16128;DHT22;8168;49.036;7.690;2022-07-17T12:34:46;28.10;42.00
16128;DHT22;8168;49.036;7.690;2022-07-17T12:37:19;28.00;42.70
16128;DHT22;8168;49.036;7.690;2022-07-17T12:39:49;28.10;44.20
16128;DHT22;8168;49.036;7.690;2022-07-17T12:42:20;28.20;43.40
16128;DHT22;8168;49.036;7.690;2022-07-17T12:44:51;28.20;41.80
16128;DHT22;8168;49.036;7.690;2022-07-17T12:47:21;28.30;43.20
16128;DHT22;8168;49.036;7.690;2022-07-17T12:49:52;28.30;40.90
16128;DHT22;8168;49.036;7.690;2022-07-17T12:52:22;28.40;41.10
16128;DHT22;8168;49.036;7.690;2022-07-17T12:54:53;28.40;41.10
16128;DHT22;8168;49.036;7.690;2022-07-17T12:57:24;28.50;41.50
16128;DHT22;8168;49.036;7.690;2022-07-17T12:59:55;28.50;43.60
16128;DHT22;8168;49.036;7.690;2022-07-17T13:02:25;28.50;41.10
16128;DHT22;8168;49.036;7.690;2022-07-17T13:04:56;28.50;41.00
16128;DHT22;8168;49.036;7.690;2022-07-17T13:07:26;28.50;39.20
16128;DHT22;8168;49.036;7.690;2022-07-17T13:09:57;28.60;40.00
16128;DHT22;8168;49.036;7.690;2022-07-17T13:12:28;28.70;40.30
16128;DHT22;8168;49.036;7.690;2022-07-17T13:14:58;28.80;38.30
16128;DHT22;8168;49.036;7.690;2022-07-17T13:17:29;28.80;38.80
16128;DHT22;8168;49.036;7.690;2022-07-17T13:20:00;28.90;37.60
16128;DHT22;8168;49.036;7.690;2022-07-17T13:22:30;29.00;38.30
16128;DHT22;8168;49.036;7.690;2022-07-17T13:25:01;29.10;38.90
16128;DHT22;8168;49.036;7.690;2022-07-17T13:27:32;29.10;37.10
16128;DHT22;8168;49.036;7.690;2022-07-17T13:30:03;29.00;35.80
16128;DHT22;8168;49.036;7.690;2022-07-17T13:32:34;29.00;37.90
16128;DHT22;8168;49.036;7.690;2022-07-17T13:35:05;29.10;38.20
16128;DHT22;8168;49.036;7.690;2022-07-17T13:37:36;29.10;38.70
16128;DHT22;8168;49.036;7.690;2022-07-17T13:40:08;29.20;36.70
16128;DHT22;8168;49.036;7.690;2022-07-17T13:42:39;29.30;36.60
16128;DHT22;8168;49.036;7.690;2022-07-17T13:45:10;29.40;37.40
16128;DHT22;8168;49.036;7.690;2022-07-17T13:47:41;29.30;36.80
16128;DHT22;8168;49.036;7.690;2022-07-17T13:50:12;29.40;37.30
16128;DHT22;8168;49.036;7.690;2022-07-17T13:52:43;29.30;35.50
16128;DHT22;8168;49.036;7.690;2022-07-17T13:55:13;29.20;39.10
16128;DHT22;8168;49.036;7.690;2022-07-17T13:57:44;29.10;40.50
16128;DHT22;8168;49.036;7.690;2022-07-17T14:00:15;29.10;40.00
16128;DHT22;8168;49.036;7.690;2022-07-17T14:02:46;29.20;38.60
16128;DHT22;8168;49.036;7.690;2022-07-17T14:05:16;29.20;39.10
16128;DHT22;8168;49.036;7.690;2022-07-17T14:07:47;29.20;39.50
16128;DHT22;8168;49.036;7.690;2022-07-17T14:10:18;28.90;40.50
16128;DHT22;8168;49.036;7.690;2022-07-17T14:12:48;28.80;39.90
16128;DHT22;8168;49.036;7.690;2022-07-17T14:15:19;28.70;40.20
16128;DHT22;8168;49.036;7.690;2022-07-17T14:17:50;28.40;41.60
16128;DHT22;8168;49.036;7.690;2022-07-17T14:20:20;28.50;41.40
16128;DHT22;8168;49.036;7.690;2022-07-17T14:22:52;28.70;41.60
16128;DHT22;8168;49.036;7.690;2022-07-17T14:25:23;28.90;41.70
16128;DHT22;8168;49.036;7.690;2022-07-17T14:27:53;29.00;41.30
16128;DHT22;8168;49.036;7.690;2022-07-17T14:30:24;29.20;40.70
16128;DHT22;8168;49.036;7.690;2022-07-17T14:32:55;29.30;41.60
16128;DHT22;8168;49.036;7.690;2022-07-17T14:35:26;29.40;40.50
16128;DHT22;8168;49.036;7.690;2022-07-17T14:37:56;29.40;38.70
16128;DHT22;8168;49.036;7.690;2022-07-17T14:40:27;29.40;38.60
16128;DHT22;8168;49.036;7.690;2022-07-17T14:42:58;29.30;39.00
16128;DHT22;8168;49.036;7.690;2022-07-17T14:45:28;29.30;38.40
16128;DHT22;8168;49.036;7.690;2022-07-17T14:47:59;29.20;38.80
16128;DHT22;8168;49.036;7.690;2022-07-17T14:50:29;29.20;40.10
16128;DHT22;8168;49.036;7.690;2022-07-17T14:53:00;29.30;40.60
16128;DHT22;8168;49.036;7.690;2022-07-17T14:55:31;29.10;41.90
16128;DHT22;8168;49.036;7.690;2022-07-17T14:58:01;29.20;41.50
16128;DHT22;8168;49.036;7.690;2022-07-17T15:00:32;29.30;41.00
16128;DHT22;8168;49.036;7.690;2022-07-17T15:03:03;29.30;41.50
16128;DHT22;8168;49.036;7.690;2022-07-17T15:05:34;29.20;40.90
16128;DHT22;8168;49.036;7.690;2022-07-17T15:08:05;29.20;40.70
16128;DHT22;8168;49.036;7.690;2022-07-17T15:10:35;29.20;40.40
16128;DHT22;8168;49.036;7.690;2022-07-17T15:13:06;28.90;40.20
16128;DHT22;8168;49.036;7.690;2022-07-17T15:15:36;29.40;41.60
16128;DHT22;8168;49.036;7.690;2022-07-17T15:18:07;29.40;42.20
16128;DHT22;8168;49.036;7.690;2022-07-17T15:20:38;29.50;41.70
16128;DHT22;8168;49.036;7.690;2022-07-17T15:23:09;29.50;42.10
16128;DHT22;8168;49.036;7.690;2022-07-17T15:25:40;29.60;42.00
16128;DHT22;8168;49.036;7.690;2022-07-17T15:28:10;29.50;40.40
16128;DHT22;8168;49.036;7.690;2022-07-17T15:30:41;29.40;39.70
16128;DHT22;8168;49.036;7.690;2022-07-17T15:33:12;29.40;40.30
16128;DHT22;8168;49.036;7.690;2022-07-17T15:35:42;29.50;40.90
16128;DHT22;8168;49.036;7.690;2022-07-17T15:38:15;29.50;41.40
16128;DHT22;8168;49.036;7.690;2022-07-17T15:40:45;29.60;41.80
16128;DHT22;8168;49.036;7.690;2022-07-17T15:43:16;29.50;41.00
16128;DHT22;8168;49.036;7.690;2022-07-17T15:45:47;29.60;41.30
16128;DHT22;8168;49.036;7.690;2022-07-17T15:48:17;29.60;42.20
16128;DHT22;8168;49.036;7.690;2022-07-17T15:50:48;30.90;41.00
16128;DHT22;8168;49.036;7.690;2022-07-17T15:53:19;29.60;40.30
16128;DHT22;8168;49.036;7.690;2022-07-17T15:55:49;29.50;40.30
16128;DHT22;8168;49.036;7.690;2022-07-17T15:58:20;29.50;40.80
16128;DHT22;8168;49.036;7.690;2022-07-17T16:00:51;29.50;41.50
16128;DHT22;8168;49.036;7.690;2022-07-17T16:03:23;29.40;40.70
16128;DHT22;8168;49.036;7.690;2022-07-17T16:05:53;29.40;41.60
16128;DHT22;8168;49.036;7.690;2022-07-17T16:08:24;29.30;40.70
16128;DHT22;8168;49.036;7.690;2022-07-17T16:10:55;29.30;41.50
16128;DHT22;8168;49.036;7.690;2022-07-17T16:13:25;29.20;41.20
16128;DHT22;8168;49.036;7.690;2022-07-17T16:15:56;29.30;41.70
16128;DHT22;8168;49.036;7.690;2022-07-17T16:18:27;29.20;42.50
16128;DHT22;8168;49.036;7.690;2022-07-17T16:20:58;29.20;41.80
16128;DHT22;8168;49.036;7.690;2022-07-17T16:23:28;29.10;41.10
16128;DHT22;8168;49.036;7.690;2022-07-17T16:25:59;29.10;40.90
16128;DHT22;8168;49.036;7.690;2022-07-17T16:28:30;29.20;40.40